createdAt,value
2023-05-16T00:00:58.392Z,14.68
2023-05-16T00:03:25.014Z,14.48
2023-05-16T00:05:51.949Z,14.82
2023-05-16T00:08:18.768Z,15.80
2023-05-16T00:10:45.283Z,15.07
2023-05-16T00:13:11.809Z,15.43
2023-05-16T00:15:38.634Z,16.05
2023-05-16T00:18:05.437Z,16.17
2023-05-16T00:20:31.870Z,16.40
2023-05-16T00:23:01.239Z,15.57
2023-05-16T00:25:28.650Z,16.92
2023-05-16T00:27:55.460Z,16.60
2023-05-16T00:30:22.818Z,16.13
2023-05-16T00:32:51.661Z,16.42
2023-05-16T00:35:18.097Z,15.60
2023-05-16T00:37:44.536Z,15.93
2023-05-16T00:40:11.488Z,16.08
2023-05-16T00:42:39.143Z,16.52
2023-05-16T00:45:06.933Z,16.67
2023-05-16T00:47:33.623Z,15.85
2023-05-16T00:50:00.777Z,16.50
2023-05-16T00:52:27.523Z,17.15
2023-05-16T00:54:54.221Z,17.58
2023-05-16T00:57:20.705Z,19.55
2023-05-16T00:59:47.695Z,18.75
2023-05-16T01:02:14.851Z,17.35
2023-05-16T01:04:42.959Z,18.75
2023-05-16T01:07:09.486Z,17.80
2023-05-16T01:09:36.290Z,19.05
2023-05-16T01:12:28.665Z,18.88
2023-05-16T01:15:26.114Z,18.63
2023-05-16T01:17:55.799Z,18.85
2023-05-16T01:20:49.442Z,20.92
2023-05-16T01:24:02.494Z,20.80
2023-05-16T01:26:50.168Z,22.17
2023-05-16T01:29:36.612Z,21.75
2023-05-16T01:32:24.704Z,21.20
2023-05-16T01:35:14.171Z,23.98
2023-05-16T01:38:05.383Z,22.80
2023-05-16T01:41:01.068Z,23.65
2023-05-16T01:43:35.181Z,24.08
2023-05-16T01:46:11.370Z,24.40
2023-05-16T01:48:49.498Z,25.17
2023-05-16T01:51:17.980Z,26.48
2023-05-16T01:53:45.384Z,27.85
2023-05-16T01:56:15.928Z,27.02
2023-05-16T01:58:44.234Z,26.50
2023-05-16T02:01:13.586Z,27.55
2023-05-16T02:03:40.480Z,28.75
2023-05-16T02:06:07.291Z,28.52
2023-05-16T02:08:34.185Z,29.80
2023-05-16T02:11:00.675Z,27.25
2023-05-16T02:13:27.141Z,28.92
2023-05-16T02:15:54.042Z,29.27
2023-05-16T02:18:20.528Z,29.55
2023-05-16T02:20:47.672Z,31.60
2023-05-16T02:23:15.751Z,30.80
2023-05-16T02:25:42.519Z,30.23
2023-05-16T02:28:09.931Z,30.98
2023-05-16T02:30:36.524Z,30.35
2023-05-16T02:33:03.298Z,30.88
2023-05-16T02:35:30.147Z,31.05
2023-05-16T02:37:57.225Z,30.50
2023-05-16T02:40:24.558Z,30.83
2023-05-16T02:42:51.253Z,31.90
2023-05-16T02:45:17.716Z,29.65
2023-05-16T02:47:44.427Z,29.92
2023-05-16T02:50:10.886Z,31.42
2023-05-16T02:52:37.527Z,31.70
2023-05-16T02:55:20.902Z,31.77
2023-05-16T02:57:48.868Z,30.40
2023-05-16T03:00:17.845Z,32.88
2023-05-16T03:02:45.639Z,31.40
2023-05-16T03:05:12.912Z,33.38
2023-05-16T03:07:39.918Z,32.60
2023-05-16T03:10:07.317Z,33.22
2023-05-16T03:12:33.908Z,32.30
2023-05-16T03:15:00.611Z,33.65
2023-05-16T03:17:27.218Z,33.38
2023-05-16T03:19:54.172Z,33.78
2023-05-16T03:22:20.702Z,34.65
2023-05-16T03:24:47.210Z,34.50
2023-05-16T03:27:13.778Z,34.88
2023-05-16T03:29:40.282Z,34.60
2023-05-16T03:32:07.641Z,35.67
2023-05-16T03:34:34.199Z,34.50
2023-05-16T03:37:01.382Z,32.33
2023-05-16T03:39:27.935Z,33.35
2023-05-16T03:41:57.315Z,34.47
2023-05-16T03:44:24.262Z,31.98
2023-05-16T03:46:51.516Z,30.02
2023-05-16T03:49:18.363Z,28.70
2023-05-16T03:51:45.199Z,28.70
2023-05-16T03:54:11.829Z,27.60
2023-05-16T03:56:38.314Z,28.25
2023-05-16T03:59:04.923Z,26.23
2023-05-16T04:01:31.584Z,23.88
2023-05-16T04:03:58.125Z,24.48
2023-05-16T04:06:24.745Z,22.83
2023-05-16T04:08:51.313Z,23.77
2023-05-16T04:11:17.781Z,23.05
2023-05-16T04:13:44.260Z,21.55
2023-05-16T04:16:11.012Z,21.63
2023-05-16T04:18:37.530Z,22.05
2023-05-16T04:21:04.607Z,21.73
2023-05-16T04:23:31.065Z,20.83
2023-05-16T04:25:57.594Z,22.02
2023-05-16T04:28:24.047Z,20.10
2023-05-16T04:30:51.370Z,21.88
2023-05-16T04:33:18.663Z,20.88
2023-05-16T04:35:45.278Z,19.50
2023-05-16T04:38:11.730Z,20.45
2023-05-16T04:40:38.704Z,19.55
2023-05-16T04:43:05.163Z,20.33
2023-05-16T04:45:31.835Z,20.95
2023-05-16T04:47:58.463Z,21.50
2023-05-16T04:50:25.100Z,20.38
2023-05-16T04:52:51.584Z,20.92
2023-05-16T04:55:18.219Z,20.67
2023-05-16T04:57:44.778Z,20.98
2023-05-16T05:00:12.291Z,18.90
2023-05-16T05:02:39.348Z,19.42
2023-05-16T05:05:06.811Z,19.02
2023-05-16T05:07:33.357Z,20.30
2023-05-16T05:09:59.987Z,20.13
2023-05-16T05:12:28.062Z,19.15
2023-05-16T05:14:54.930Z,20.85
2023-05-16T05:17:21.801Z,19.67
2023-05-16T05:19:48.445Z,20.40
2023-05-16T05:22:15.345Z,20.73
2023-05-16T05:24:42.291Z,20.27
2023-05-16T05:27:08.785Z,20.23
2023-05-16T05:29:35.511Z,21.10
2023-05-16T05:32:02.065Z,21.08
2023-05-16T05:34:28.569Z,19.90
2023-05-16T05:36:55.007Z,19.02
2023-05-16T05:39:21.486Z,20.35
2023-05-16T05:41:48.286Z,18.92
2023-05-16T05:44:14.814Z,18.67
2023-05-16T05:46:41.484Z,19.40
2023-05-16T05:49:07.977Z,19.42
2023-05-16T05:51:34.788Z,19.00
2023-05-16T05:54:02.509Z,21.70
2023-05-16T05:56:28.891Z,20.23
2023-05-16T05:58:55.632Z,20.27
2023-05-16T06:01:22.273Z,20.50
2023-05-16T06:03:49.048Z,17.83
2023-05-16T06:06:15.506Z,18.02
2023-05-16T06:08:42.102Z,18.50
2023-05-16T06:11:09.165Z,19.00
2023-05-16T06:13:36.235Z,18.63
2023-05-16T06:16:02.998Z,18.58
2023-05-16T06:18:29.800Z,16.75
2023-05-16T06:20:56.360Z,18.15
2023-05-16T06:23:22.928Z,17.25
2023-05-16T06:25:49.397Z,15.98
2023-05-16T06:28:15.948Z,15.13
2023-05-16T06:30:42.453Z,15.18
2023-05-16T06:33:09.564Z,16.08
2023-05-16T06:35:36.158Z,14.48
2023-05-16T06:38:02.681Z,14.63
2023-05-16T06:40:29.225Z,14.13
2023-05-16T06:42:58.362Z,14.07
2023-05-16T06:45:25.313Z,13.80
2023-05-16T06:47:52.787Z,12.50
2023-05-16T06:50:20.882Z,12.55
2023-05-16T06:52:47.404Z,11.55
2023-05-16T06:55:14.249Z,10.65
2023-05-16T06:57:40.948Z,11.30
2023-05-16T07:00:08.473Z,10.43
2023-05-16T07:02:35.169Z,11.38
2023-05-16T07:05:01.869Z,9.63
2023-05-16T07:07:28.672Z,8.98
2023-05-16T07:09:55.253Z,9.30
2023-05-16T07:12:21.763Z,7.88
2023-05-16T07:14:48.409Z,6.40
2023-05-16T07:17:15.388Z,5.55
2023-05-16T07:19:42.041Z,5.00
2023-05-16T07:22:08.729Z,4.47
2023-05-16T07:24:36.260Z,4.28
2023-05-16T07:27:04.106Z,3.72
2023-05-16T07:29:30.993Z,3.53
2023-05-16T07:31:57.540Z,3.03
2023-05-16T07:34:24.258Z,2.90
2023-05-16T07:36:51.027Z,2.45
2023-05-16T07:39:17.558Z,2.25
2023-05-16T07:41:44.074Z,2.60
2023-05-16T07:44:10.910Z,2.15
2023-05-16T07:46:37.825Z,2.28
2023-05-16T07:49:04.672Z,2.42
2023-05-16T07:51:31.958Z,2.30
2023-05-16T07:53:58.502Z,2.28
2023-05-16T07:56:25.022Z,1.70
2023-05-16T07:58:51.595Z,1.60
2023-05-16T08:01:18.265Z,1.60
2023-05-16T08:03:44.800Z,1.40
2023-05-16T08:06:11.530Z,1.67
2023-05-16T08:08:38.446Z,1.75
2023-05-16T08:11:05.682Z,1.42
2023-05-16T08:13:32.313Z,1.48
2023-05-16T08:15:59.036Z,1.42
2023-05-16T08:18:25.771Z,1.60
2023-05-16T08:20:52.467Z,1.50
2023-05-16T08:23:19.032Z,1.90
2023-05-16T08:25:45.714Z,1.15
2023-05-16T08:28:12.380Z,0.88
2023-05-16T08:30:40.479Z,0.77
2023-05-16T08:33:10.265Z,0.88
2023-05-16T08:35:36.833Z,0.68
2023-05-16T08:38:03.500Z,0.68
2023-05-16T08:40:30.478Z,0.85
2023-05-16T08:42:57.190Z,0.90
2023-05-16T08:45:24.018Z,0.75
2023-05-16T08:47:54.328Z,1.02
2023-05-16T08:50:21.901Z,0.98
2023-05-16T08:52:54.149Z,0.85
2023-05-16T08:55:22.411Z,1.00
2023-05-16T08:57:52.907Z,1.10
2023-05-16T09:00:20.248Z,1.00
2023-05-16T09:02:46.994Z,1.10
2023-05-16T09:05:15.737Z,1.52
2023-05-16T09:07:43.446Z,1.30
2023-05-16T09:10:11.080Z,1.25
2023-05-16T09:12:39.003Z,1.00
2023-05-16T09:15:07.316Z,1.10
2023-05-16T09:17:43.979Z,1.10
2023-05-16T09:20:18.544Z,1.35
2023-05-16T09:22:59.092Z,0.95
2023-05-16T09:28:02.108Z,0.70
2023-05-16T09:30:34.537Z,0.70
2023-05-16T09:33:01.869Z,0.60
2023-05-16T09:35:43.133Z,0.55
2023-05-16T09:38:17.045Z,0.60
2023-05-16T09:40:45.066Z,0.90
2023-05-16T09:43:16.343Z,1.23
2023-05-16T09:45:48.498Z,1.35
2023-05-16T09:48:17.077Z,0.80
2023-05-16T09:50:53.004Z,0.90
2023-05-16T09:53:33.426Z,1.20
2023-05-16T09:56:04.505Z,1.85
2023-05-16T09:58:33.484Z,1.00
2023-05-16T10:01:00.652Z,1.30
2023-05-16T10:03:27.771Z,0.80
2023-05-16T10:05:55.696Z,1.40
2023-05-16T10:08:23.758Z,1.10
2023-05-16T10:10:55.171Z,0.93
2023-05-16T10:13:24.871Z,1.30
2023-05-16T10:15:56.033Z,1.27
2023-05-16T10:18:29.005Z,0.80
2023-05-16T10:20:57.081Z,1.80
2023-05-16T10:23:26.367Z,1.30
2023-05-16T10:25:54.526Z,1.20
2023-05-16T10:28:21.711Z,1.20
2023-05-16T10:30:48.443Z,1.70
2023-05-16T10:33:19.628Z,1.35
2023-05-16T10:35:46.943Z,1.20
2023-05-16T10:38:19.821Z,1.50
2023-05-16T10:40:47.587Z,1.77
2023-05-16T10:43:24.710Z,1.40
2023-05-16T10:45:58.460Z,1.20
2023-05-16T10:48:32.829Z,1.70
2023-05-16T10:50:59.880Z,1.30
2023-05-16T10:53:32.632Z,0.93
2023-05-16T10:55:59.273Z,1.15
2023-05-16T10:58:44.064Z,1.15
2023-05-16T11:01:33.862Z,0.88
2023-05-16T11:04:09.031Z,1.15
2023-05-16T11:06:41.720Z,1.00
2023-05-16T11:09:17.446Z,1.10
2023-05-16T11:11:49.182Z,0.95
2023-05-16T11:14:24.005Z,0.80
2023-05-16T11:17:07.589Z,0.80
2023-05-16T11:19:48.813Z,1.15
2023-05-16T11:22:22.832Z,1.45
2023-05-16T11:25:01.153Z,1.05
2023-05-16T11:27:36.225Z,1.05
2023-05-16T11:30:05.872Z,1.27
2023-05-16T11:32:37.207Z,1.20
2023-05-16T11:35:05.361Z,1.20
2023-05-16T11:37:32.025Z,1.10
2023-05-16T11:40:04.346Z,1.08
2023-05-16T11:42:33.952Z,0.98
2023-05-16T11:45:08.733Z,1.10
2023-05-16T11:47:40.028Z,1.90
2023-05-16T11:50:09.934Z,0.80
2023-05-16T11:52:37.432Z,1.25
2023-05-16T11:55:10.772Z,1.15
2023-05-16T11:57:44.549Z,0.80
2023-05-16T12:00:19.919Z,0.82
2023-05-16T12:02:47.994Z,1.10
2023-05-16T12:05:15.925Z,0.88
2023-05-16T12:07:46.731Z,1.55
2023-05-16T12:10:15.085Z,1.65
2023-05-16T12:12:45.009Z,1.30
2023-05-16T12:15:12.705Z,1.35
2023-05-16T12:17:40.930Z,1.40
2023-05-16T12:20:14.494Z,1.10
2023-05-16T12:22:42.445Z,1.52
2023-05-16T12:25:30.829Z,1.42
2023-05-16T12:27:59.986Z,1.30
2023-05-16T12:30:28.605Z,1.50
2023-05-16T12:33:06.723Z,1.45
2023-05-16T12:35:34.431Z,1.77
2023-05-16T12:38:05.647Z,1.30
2023-05-16T12:40:32.537Z,2.13
2023-05-16T12:42:59.341Z,1.88
2023-05-16T12:45:29.571Z,1.80
2023-05-16T12:47:56.294Z,1.77
2023-05-16T12:50:23.014Z,1.65
2023-05-16T12:52:51.254Z,1.83
2023-05-16T12:55:19.016Z,1.38
2023-05-16T12:57:47.734Z,1.45
2023-05-16T13:00:16.537Z,1.33
2023-05-16T13:02:43.198Z,1.58
2023-05-16T13:05:12.741Z,2.78
2023-05-16T13:07:40.734Z,1.40
2023-05-16T13:10:10.605Z,2.20
2023-05-16T13:12:41.053Z,1.60
2023-05-16T13:17:35.621Z,1.98
2023-05-16T13:20:07.957Z,2.10
2023-05-16T13:22:34.461Z,2.50
2023-05-16T13:25:00.953Z,2.13
2023-05-16T13:27:27.576Z,1.67
2023-05-16T13:29:54.086Z,1.80
2023-05-16T13:32:20.957Z,2.08
2023-05-16T13:34:47.677Z,2.20
2023-05-16T13:37:14.517Z,2.33
2023-05-16T13:39:41.618Z,1.88
2023-05-16T13:42:08.152Z,2.15
2023-05-16T13:44:34.757Z,2.22
2023-05-16T13:47:01.861Z,1.80
2023-05-16T13:49:28.613Z,1.75
2023-05-16T13:51:55.376Z,1.35
2023-05-16T13:54:22.664Z,1.52
2023-05-16T13:56:49.428Z,2.10
2023-05-16T13:59:23.698Z,1.48
2023-05-16T14:01:59.036Z,1.52
2023-05-16T14:04:26.496Z,2.60
2023-05-16T14:06:53.402Z,2.05
2023-05-16T14:09:19.978Z,2.00
2023-05-16T14:11:46.612Z,2.20
2023-05-16T14:14:13.298Z,2.13
2023-05-16T14:16:45.087Z,2.38
2023-05-16T14:19:12.799Z,2.55
2023-05-16T14:21:40.094Z,2.35
2023-05-16T14:24:07.318Z,2.45
2023-05-16T14:26:33.768Z,1.95
2023-05-16T14:29:00.684Z,1.90
2023-05-16T14:31:27.225Z,1.75
2023-05-16T14:33:56.148Z,1.55
2023-05-16T14:36:22.680Z,1.55
2023-05-16T14:38:49.329Z,1.92
2023-05-16T14:41:16.368Z,2.22
2023-05-16T14:43:44.608Z,1.85
2023-05-16T14:46:11.526Z,1.80
2023-05-16T14:48:38.062Z,1.80
2023-05-16T14:51:07.525Z,2.28
2023-05-16T14:53:34.088Z,2.17
2023-05-16T14:56:02.714Z,1.70
2023-05-16T14:58:30.128Z,1.35
2023-05-16T15:00:56.885Z,2.10
2023-05-16T15:03:23.451Z,1.52
2023-05-16T15:05:50.512Z,1.77
2023-05-16T15:08:16.967Z,2.00
2023-05-16T15:10:44.643Z,1.83
2023-05-16T15:13:11.223Z,1.75
2023-05-16T15:15:38.726Z,1.98
2023-05-16T15:18:08.776Z,1.77
2023-05-16T15:20:35.361Z,1.67
2023-05-16T15:23:01.999Z,1.70
2023-05-16T15:25:28.761Z,1.65
2023-05-16T15:27:55.613Z,1.65
2023-05-16T15:30:22.350Z,1.73
2023-05-16T15:32:48.948Z,1.40
2023-05-16T15:35:15.541Z,1.40
2023-05-16T15:37:42.154Z,1.77
2023-05-16T15:40:10.464Z,1.67
2023-05-16T15:42:37.065Z,1.30
2023-05-16T15:45:03.852Z,1.30
2023-05-16T15:47:30.512Z,1.92
2023-05-16T15:49:57.007Z,1.33
2023-05-16T15:52:23.484Z,1.38
2023-05-16T15:54:50.069Z,1.25
2023-05-16T15:57:16.828Z,1.33
2023-05-16T15:59:43.352Z,1.20
2023-05-16T16:02:09.900Z,1.15
2023-05-16T16:04:36.571Z,1.25
2023-05-16T16:07:03.331Z,1.80
2023-05-16T16:09:30.094Z,1.38
2023-05-16T16:11:56.732Z,1.50
2023-05-16T16:14:24.557Z,1.77
2023-05-16T16:16:51.732Z,1.60
2023-05-16T16:19:18.775Z,1.65
2023-05-16T16:21:45.476Z,1.50
2023-05-16T16:24:12.000Z,1.58
2023-05-16T16:26:38.565Z,1.73
2023-05-16T16:29:06.313Z,2.00
2023-05-16T16:31:33.002Z,2.00
2023-05-16T16:33:59.631Z,1.45
2023-05-16T16:36:26.378Z,2.08
2023-05-16T16:38:52.969Z,1.52
2023-05-16T16:41:19.681Z,1.35
2023-05-16T16:43:46.132Z,1.48
2023-05-16T16:46:13.403Z,1.10
2023-05-16T16:48:40.153Z,1.30
2023-05-16T16:51:07.156Z,1.40
2023-05-16T16:53:35.073Z,1.55
2023-05-16T16:56:01.736Z,1.48
2023-05-16T16:58:28.406Z,1.35
2023-05-16T17:00:54.884Z,1.00
2023-05-16T17:03:21.844Z,1.45
2023-05-16T17:05:48.537Z,1.90
2023-05-16T17:08:15.048Z,2.45
2023-05-16T17:10:41.881Z,1.60
2023-05-16T17:13:10.483Z,1.67
2023-05-16T17:15:37.856Z,1.40
2023-05-16T17:18:08.460Z,1.60
2023-05-16T17:20:36.084Z,1.30
2023-05-16T17:23:04.151Z,1.50
2023-05-16T17:25:31.244Z,1.50
2023-05-16T17:27:58.061Z,2.17
2023-05-16T17:30:24.742Z,1.77
2023-05-16T17:32:51.453Z,1.33
2023-05-16T17:35:18.375Z,1.27
2023-05-16T17:37:47.399Z,1.40
2023-05-16T17:40:17.119Z,1.10
2023-05-16T17:42:45.074Z,1.77
2023-05-16T17:45:15.991Z,1.35
2023-05-16T17:47:42.952Z,1.55
2023-05-16T17:50:10.526Z,1.92
2023-05-16T17:52:40.645Z,2.10
2023-05-16T17:55:09.034Z,2.00
2023-05-16T17:57:35.797Z,1.77
2023-05-16T18:00:05.052Z,1.88
2023-05-16T18:02:32.000Z,1.50
2023-05-16T18:04:59.471Z,2.55
2023-05-16T18:07:26.831Z,2.20
2023-05-16T18:09:54.174Z,1.48
2023-05-16T18:12:21.378Z,1.38
2023-05-16T18:14:47.864Z,1.60
2023-05-16T18:17:14.626Z,1.80
2023-05-16T18:19:41.472Z,2.17
2023-05-16T18:22:08.694Z,1.48
2023-05-16T18:24:35.540Z,1.75
2023-05-16T18:27:02.976Z,1.33
2023-05-16T18:29:30.124Z,1.23
2023-05-16T18:31:57.543Z,1.20
2023-05-16T18:34:24.111Z,1.20
2023-05-16T18:36:50.733Z,1.60
2023-05-16T18:39:18.920Z,1.38
2023-05-16T18:41:47.984Z,1.40
2023-05-16T18:44:17.585Z,1.30
2023-05-16T18:46:45.640Z,1.70
2023-05-16T18:49:15.854Z,1.88
2023-05-16T18:51:42.533Z,1.45
2023-05-16T18:54:09.124Z,1.35
2023-05-16T18:56:35.888Z,1.50
2023-05-16T18:59:02.402Z,1.50
2023-05-16T19:01:28.997Z,1.10
2023-05-16T19:03:56.084Z,1.38
2023-05-16T19:06:22.998Z,1.00
2023-05-16T19:08:49.607Z,1.23
2023-05-16T19:11:17.543Z,1.30
2023-05-16T19:13:47.203Z,1.38
2023-05-16T19:16:14.358Z,1.27
2023-05-16T19:18:41.264Z,1.35
2023-05-16T19:21:08.490Z,1.20
2023-05-16T19:23:35.028Z,1.30
2023-05-16T19:26:01.722Z,1.10
2023-05-16T19:28:28.367Z,1.45
2023-05-16T19:30:55.099Z,1.80
2023-05-16T19:33:21.767Z,2.22
2023-05-16T19:35:48.934Z,1.70
2023-05-16T19:38:15.548Z,1.50
2023-05-16T19:40:42.193Z,1.65
2023-05-16T19:43:08.774Z,3.00
2023-05-16T19:45:35.744Z,2.58
2023-05-16T19:48:02.373Z,3.63
2023-05-16T19:50:29.128Z,3.03
2023-05-16T19:52:58.062Z,2.85
2023-05-16T19:55:26.909Z,3.40
2023-05-16T19:57:53.594Z,3.25
2023-05-16T20:00:20.262Z,3.28
2023-05-16T20:02:47.862Z,4.10
2023-05-16T20:05:19.461Z,2.92
2023-05-16T20:07:46.211Z,1.50
2023-05-16T20:10:12.836Z,1.70
2023-05-16T20:12:39.501Z,1.65
2023-05-16T20:15:08.656Z,1.50
2023-05-16T20:17:35.312Z,1.27
2023-05-16T20:20:01.960Z,1.30
2023-05-16T20:22:28.652Z,1.60
2023-05-16T20:24:55.284Z,1.42
2023-05-16T20:27:22.049Z,1.30
2023-05-16T20:29:54.570Z,1.80
2023-05-16T20:32:21.364Z,1.60
2023-05-16T20:34:47.992Z,1.58
2023-05-16T20:37:14.618Z,1.38
2023-05-16T20:39:41.237Z,1.35
2023-05-16T20:42:10.822Z,1.23
2023-05-16T20:44:38.454Z,1.20
2023-05-16T20:47:06.296Z,1.45
2023-05-16T20:49:35.892Z,1.60
2023-05-16T20:52:02.558Z,1.67
2023-05-16T20:54:29.113Z,1.30
2023-05-16T20:56:55.658Z,1.30
2023-05-16T20:59:22.133Z,1.40
2023-05-16T21:01:48.707Z,1.60
2023-05-16T21:04:15.771Z,1.30
2023-05-16T21:06:42.333Z,1.17
2023-05-16T21:09:08.912Z,1.25
2023-05-16T21:11:36.043Z,1.48
2023-05-16T21:14:02.950Z,1.30
2023-05-16T21:16:31.011Z,1.38
2023-05-16T21:18:58.584Z,1.40
2023-05-16T21:21:25.292Z,1.13
2023-05-16T21:23:51.840Z,1.23
2023-05-16T21:26:18.329Z,1.58
2023-05-16T21:28:54.398Z,1.33
2023-05-16T21:31:21.860Z,1.88
2023-05-16T21:33:51.849Z,1.75
2023-05-16T21:36:19.621Z,1.50
2023-05-16T21:38:46.352Z,1.85
2023-05-16T21:41:13.231Z,1.23
2023-05-16T21:43:40.070Z,1.17
2023-05-16T21:46:07.095Z,1.60
2023-05-16T21:48:33.749Z,1.63
2023-05-16T21:51:00.500Z,1.60
2023-05-16T21:53:27.127Z,1.20
2023-05-16T21:55:53.659Z,1.10
2023-05-16T21:58:20.328Z,1.50
2023-05-16T22:00:46.769Z,1.33
2023-05-16T22:03:13.624Z,1.67
2023-05-16T22:05:40.222Z,1.20
2023-05-16T22:08:07.877Z,1.30
2023-05-16T22:10:34.453Z,1.08
2023-05-16T22:13:01.100Z,1.58
2023-05-16T22:15:27.752Z,1.40
2023-05-16T22:17:54.682Z,1.42
2023-05-16T22:20:21.495Z,1.60
2023-05-16T22:22:49.125Z,2.05
2023-05-16T22:25:15.588Z,1.40
2023-05-16T22:27:42.312Z,1.13
2023-05-16T22:30:09.325Z,1.13
2023-05-16T22:32:35.967Z,1.35
2023-05-16T22:35:02.669Z,1.73
2023-05-16T22:37:29.279Z,1.30
2023-05-16T22:39:56.980Z,1.27
2023-05-16T22:42:23.824Z,1.63
2023-05-16T22:44:50.363Z,1.83
2023-05-16T22:47:17.046Z,1.25
2023-05-16T22:49:43.673Z,1.40
2023-05-16T22:52:10.324Z,1.55
2023-05-16T22:54:36.831Z,2.03
2023-05-16T22:57:03.583Z,1.95
2023-05-16T22:59:30.487Z,1.70
2023-05-16T23:01:57.139Z,1.50
2023-05-16T23:04:23.690Z,1.30
2023-05-16T23:06:50.627Z,1.38
2023-05-16T23:09:17.085Z,1.40
2023-05-16T23:11:43.577Z,1.70
2023-05-16T23:14:10.538Z,1.90
2023-05-16T23:16:37.053Z,1.50
2023-05-16T23:19:04.221Z,1.98
2023-05-16T23:21:31.528Z,1.83
2023-05-16T23:23:58.044Z,1.92
2023-05-16T23:26:24.516Z,2.08
2023-05-16T23:28:51.461Z,1.63
2023-05-16T23:31:17.918Z,1.83
2023-05-16T23:33:44.526Z,1.63
2023-05-16T23:36:10.999Z,1.40
2023-05-16T23:38:37.806Z,1.80
2023-05-16T23:41:04.343Z,1.83
2023-05-16T23:43:30.931Z,1.58
2023-05-16T23:45:57.696Z,1.58
2023-05-16T23:48:24.433Z,1.70
2023-05-16T23:50:51.498Z,1.60
2023-05-16T23:53:18.410Z,1.48
2023-05-16T23:55:44.874Z,1.67
2023-05-16T23:58:11.687Z,2.25
